• Join FlightAware (Why Join?)
  • Login
  • US Flag 
01:33PM EDT


 

Airport Tracker/Info


-or-


 

Live Flight TrackerFlight Track Log ✈ GUG717 ✈ 11-Dec-2013 ✈ MSLP / SAL - MNMG / MGA

Flight Track Log - Related Links

Times and Time Zones

All times are in EST time to prevent confusion due to time zone crossing. See the GUG717 flight status page for this flight to view local times or setup timezone preferences in your user account.

Time Position Orientation Groundspeed Altitude Reporting Facility
EST Latitude Longitude Course Direction KTS MPH feet Rate Location/Type
04:04PM 13.0866 -88.2582 114° Southeast  Level Estimated
04:05PM 13.0612 -88.2014 115° Southeast  Level Estimated
04:06PM 13.0357 -88.1445 115° Southeast  Level Estimated
04:07PM 13.0103 -88.0876 115° Southeast  Level Estimated
04:08PM 12.9849 -88.0308 115° Southeast  Level Estimated
04:09PM 12.9594 -87.9740 115° Southeast  Level Estimated
04:10PM 12.9339 -87.9172 115° Southeast  Level Estimated
04:11PM 12.9085 -87.8604 115° Southeast  Level Estimated
04:12PM 12.8830 -87.8036 115° Southeast  Level Estimated
04:13PM 12.8575 -87.7468 115° Southeast  Level Estimated
04:14PM 12.8319 -87.6900 115° Southeast  Level Estimated
04:15PM 12.8064 -87.6332 115° Southeast  Level Estimated
04:16PM 12.7809 -87.5765 115° Southeast  Level Estimated
04:17PM 12.7553 -87.5198 115° Southeast  Level Estimated
04:18PM 12.7297 -87.4630 115° Southeast  Level Estimated
04:19PM 12.7042 -87.4063 115° Southeast  Level Estimated
04:20PM 12.6786 -87.3496 115° Southeast  Level Estimated
04:21PM 12.6530 -87.2929 115° Southeast  Level Estimated
04:22PM 12.6274 -87.2363 115° Southeast  Level Estimated
04:23PM 12.6017 -87.1796 115° Southeast  Level Estimated
04:24PM 12.5761 -87.1229 115° Southeast  Level Estimated
04:25PM 12.5504 -87.0663 115° Southeast  Level Estimated
04:26PM 12.5248 -87.0097 115° Southeast  Level Estimated
04:27PM 12.4991 -86.9530 115° Southeast  Level Estimated
04:28PM 12.4734 -86.8964 115° Southeast  Level Estimated
04:29PM 12.4477 -86.8398 115° Southeast  Level Estimated
04:30PM 12.4220 -86.7832 115° Southeast  Level Estimated
04:31PM 12.3963 -86.7267 115° Southeast  Level Estimated
04:32PM 12.3706 -86.6701 115° Southeast  Level Estimated
04:33PM 12.3448 -86.6135 115° Southeast  Level Estimated
04:34PM 12.3190 -86.5570 115° Southeast  Level Estimated
04:35PM 12.2933 -86.5005 115° Southeast  Level Estimated
04:36PM 12.2675 -86.4439 115° Southeast  Level Estimated
04:37PM 12.2417 -86.3874 115° Southeast  Level Estimated
04:38PM 12.2159 -86.3309 115° Southeast  Level Estimated
04:39PM 12.1901 -86.2745 115° Southeast  Level Estimated
04:40PM 12.1643 -86.2180 115° Southeast  Level Estimated
04:41PM 12.1415 -86.1682 115° Southeast  Level Estimated
04:42PM 12.1415 -86.1682 26° Northeast  Level Estimated
04:43PM 12.1415 -86.1682 26° Northeast  Level Estimated
04:44PM 12.1415 -86.1682 26° Northeast  Level Estimated
04:45PM 12.1415 -86.1682 26° Northeast  Level Estimated
04:46PM 12.1415 -86.1682 26° Northeast  Level Estimated
04:47PM 12.1415 -86.1682 26° Northeast  Level Estimated
04:48PM 12.1415 -86.1682 26° Northeast  Level Estimated
04:49PM 12.1415 -86.1682 26° Northeast  Level Estimated
04:50PM 12.1415 -86.1682 26° Northeast  Level Estimated
04:51PM 12.1415 -86.1682 26° Northeast  Level Estimated
04:52PM 12.1415 -86.1682 26° Northeast  Level Estimated
04:53PM 12.1415 -86.1682 26° Northeast  Level Estimated
04:54PM 12.1415 -86.1682 26° Northeast  Level Estimated
04:55PM 12.1415 -86.1682 26° Northeast  Level Estimated
04:56PM 12.1415 -86.1682 26° Northeast  Level Estimated
04:57PM 12.1415 -86.1682 26° Northeast  Level Estimated